ARG1220 SABE-SBSV
Flight info
| Callsign | ARG1220 |
|---|---|
| Flight time | N/A |
| Altitude | 35000 |
| Route | KUKEN8 KUKEN UM654 PORLI UM534 URURI DCT PUBED DCT ASGOL DCT SOVSI DCT CGO DCT KONVI UZ23 EDNOB |
| Aircraft | B738/M-SDE2E3FGHIRWXY/LB1 |
Departure
| Time | 2026-04-30 22:27 |
|---|---|
| Airport | Aeroparque Jorge Newbery (SABE) |
Arrival
| Time | N/A |
|---|---|
| Airport | Deputado Luiz Eduardo Magalhães International Airport (SBSV) |
| Time | Latitude | Longitude | Altitude | Speed | Heading |
|---|---|---|---|---|---|
| 2026-04-30 21:37 | -34.55967 | -58.41014 | 26 ft | 0 kts | 58° |
| 2026-04-30 22:15 | -34.55970 | -58.41021 | 24 ft | 4 kts | 58° |
| 2026-04-30 22:16 | -34.55986 | -58.41047 | 29 ft | 4 kts | 39° |
| 2026-04-30 22:16 | -34.56005 | -58.41058 | 28 ft | 4 kts | 333° |
| 2026-04-30 22:17 | -34.56045 | -58.41009 | 28 ft | 0 kts | 308° |
| 2026-04-30 22:20 | -34.56042 | -58.41014 | 26 ft | 2 kts | 306° |
| 2026-04-30 22:21 | -34.56032 | -58.41043 | 27 ft | 5 kts | 270° |
| 2026-04-30 22:21 | -34.56054 | -58.41074 | 26 ft | 5 kts | 239° |
| 2026-04-30 22:21 | -34.56043 | -58.41113 | 26 ft | 5 kts | 304° |
| 2026-04-30 22:21 | -34.56021 | -58.41147 | 28 ft | 5 kts | 307° |
| 2026-04-30 22:22 | -34.56000 | -58.41181 | 27 ft | 5 kts | 307° |
| 2026-04-30 22:22 | -34.55975 | -58.41219 | 24 ft | 7 kts | 309° |
| 2026-04-30 22:22 | -34.55935 | -58.41285 | 25 ft | 12 kts | 303° |
| 2026-04-30 22:22 | -34.55892 | -58.41379 | 24 ft | 14 kts | 297° |
| 2026-04-30 22:23 | -34.55846 | -58.41487 | 26 ft | 15 kts | 297° |
| 2026-04-30 22:23 | -34.55799 | -58.41600 | 27 ft | 15 kts | 297° |
| 2026-04-30 22:23 | -34.55755 | -58.41708 | 25 ft | 14 kts | 296° |
| 2026-04-30 22:23 | -34.55708 | -58.41809 | 25 ft | 13 kts | 304° |
| 2026-04-30 22:24 | -34.55656 | -58.41900 | 26 ft | 13 kts | 304° |
| 2026-04-30 22:24 | -34.55607 | -58.41989 | 26 ft | 13 kts | 303° |
| 2026-04-30 22:24 | -34.55557 | -58.42075 | 24 ft | 12 kts | 307° |
| 2026-04-30 22:24 | -34.55506 | -58.42156 | 25 ft | 12 kts | 307° |
| 2026-04-30 22:25 | -34.55457 | -58.42235 | 27 ft | 12 kts | 307° |
| 2026-04-30 22:25 | -34.55409 | -58.42313 | 28 ft | 11 kts | 307° |
| 2026-04-30 22:25 | -34.55369 | -58.42384 | 25 ft | 9 kts | 290° |
| 2026-04-30 22:25 | -34.55360 | -58.42461 | 24 ft | 9 kts | 270° |
| 2026-04-30 22:26 | -34.55411 | -58.42499 | 27 ft | 0 kts | 125° |
| 2026-04-30 22:26 | -34.55541 | -58.42265 | 27 ft | 72 kts | 124° |
| 2026-04-30 22:27 | -34.55960 | -58.41513 | 24 ft | 141 kts | 124° |
| 2026-04-30 22:27 | -34.56610 | -58.40360 | 256 ft | 178 kts | 123° |
| 2026-04-30 22:27 | -34.57711 | -58.37664 | 1872 ft | 183 kts | 89° |
| 2026-04-30 22:28 | -34.56769 | -58.34888 | 2997 ft | 191 kts | 36° |
| 2026-04-30 22:28 | -34.55631 | -58.33969 | 3365 ft | 205 kts | 28° |
| 2026-04-30 22:29 | -34.51026 | -58.32217 | 4453 ft | 255 kts | 13° |
| 2026-04-30 22:29 | -34.49306 | -58.31662 | 5266 ft | 256 kts | 13° |
| 2026-04-30 22:30 | -34.42228 | -58.29385 | 8180 ft | 269 kts | 12° |
| 2026-04-30 22:31 | -34.36713 | -58.27617 | 10259 ft | 280 kts | 11° |
| 2026-04-30 22:32 | -34.30410 | -58.25609 | 10841 ft | 340 kts | 11° |
| 2026-04-30 22:32 | -34.25737 | -58.24108 | 11911 ft | 352 kts | 11° |
| 2026-04-30 22:33 | -34.18523 | -58.21597 | 13568 ft | 371 kts | 19° |
| 2026-04-30 22:33 | -34.14075 | -58.18183 | 14625 ft | 384 kts | 31° |
| 2026-04-30 22:34 | -34.07538 | -58.12339 | 16182 ft | 395 kts | 31° |
| 2026-04-30 22:35 | -34.03062 | -58.08379 | 17191 ft | 403 kts | 30° |
| 2026-04-30 22:36 | -33.93845 | -58.00304 | 19061 ft | 415 kts | 30° |
| 2026-04-30 22:36 | -33.91498 | -57.98252 | 19498 ft | 418 kts | 29° |
| 2026-04-30 22:37 | -33.84369 | -57.92031 | 20810 ft | 426 kts | 29° |
| 2026-04-30 22:37 | -33.81963 | -57.89934 | 21228 ft | 429 kts | 29° |
| 2026-04-30 22:37 | -33.77102 | -57.85702 | 22078 ft | 433 kts | 29° |
| 2026-04-30 22:38 | -33.72194 | -57.81434 | 22909 ft | 438 kts | 29° |
| 2026-04-30 22:38 | -33.67230 | -57.77123 | 23663 ft | 443 kts | 28° |
| 2026-04-30 22:39 | -33.64727 | -57.74953 | 23989 ft | 445 kts | 28° |
| 2026-04-30 22:39 | -33.57197 | -57.68436 | 25109 ft | 446 kts | 29° |
| 2026-04-30 22:40 | -33.49572 | -57.61856 | 26015 ft | 452 kts | 29° |
| 2026-04-30 22:41 | -33.41864 | -57.55212 | 26914 ft | 458 kts | 29° |
| 2026-04-30 22:41 | -33.36670 | -57.50742 | 27482 ft | 462 kts | 29° |
| 2026-04-30 22:42 | -33.27063 | -57.42493 | 28515 ft | 467 kts | 29° |
| 2026-04-30 22:43 | -33.21758 | -57.37949 | 28986 ft | 471 kts | 29° |
| 2026-04-30 22:43 | -33.16376 | -57.33344 | 29505 ft | 474 kts | 29° |
| 2026-04-30 22:44 | -33.11009 | -57.28757 | 30177 ft | 473 kts | 28° |
| 2026-04-30 22:45 | -33.00330 | -57.19656 | 31232 ft | 472 kts | 28° |
| 2026-04-30 22:45 | -32.94995 | -57.15120 | 31764 ft | 471 kts | 28° |
| 2026-04-30 22:46 | -32.89646 | -57.10579 | 32220 ft | 472 kts | 28° |
| 2026-04-30 22:47 | -32.78931 | -57.01504 | 33137 ft | 473 kts | 28° |
| 2026-04-30 22:47 | -32.73571 | -56.96974 | 33565 ft | 473 kts | 27° |
| 2026-04-30 22:48 | -32.68184 | -56.92429 | 33847 ft | 477 kts | 27° |
| 2026-04-30 22:49 | -32.60092 | -56.85609 | 34505 ft | 474 kts | 27° |
| 2026-04-30 22:49 | -32.52005 | -56.78815 | 34957 ft | 476 kts | 27° |
| 2026-04-30 22:51 | -32.35812 | -56.65260 | 34999 ft | 471 kts | 27° |
| 2026-04-30 22:52 | -32.27804 | -56.58580 | 35006 ft | 469 kts | 27° |
| 2026-04-30 22:53 | -32.17118 | -56.49688 | 35016 ft | 471 kts | 27° |
| 2026-04-30 22:53 | -32.09047 | -56.42991 | 35003 ft | 475 kts | 27° |
| 2026-04-30 22:55 | -31.95451 | -56.31739 | 35020 ft | 480 kts | 27° |
| 2026-04-30 22:56 | -31.84489 | -56.22690 | 35016 ft | 481 kts | 27° |
| 2026-04-30 22:57 | -31.70816 | -56.11443 | 35016 ft | 479 kts | 27° |
| 2026-04-30 22:58 | -31.59975 | -56.02397 | 35010 ft | 484 kts | 35° |
| 2026-04-30 22:59 | -31.54526 | -55.92183 | 35041 ft | 508 kts | 66° |
| 2026-04-30 22:59 | -31.51115 | -55.80400 | 35028 ft | 509 kts | 66° |